sensor_id;sensor_type;location;lat;lon;timestamp;P1;durP1;ratioP1;P2;durP2;ratioP2
55601;SDS011;59921;51.332;12.410;2023-06-14T00:01:41;3.35;;;2.15;;
55601;SDS011;59921;51.332;12.410;2023-06-14T00:04:06;2.65;;;2.10;;
55601;SDS011;59921;51.332;12.410;2023-06-14T00:06:33;2.72;;;2.38;;
55601;SDS011;59921;51.332;12.410;2023-06-14T00:08:59;2.60;;;2.30;;
55601;SDS011;59921;51.332;12.410;2023-06-14T00:11:25;2.55;;;2.30;;
55601;SDS011;59921;51.332;12.410;2023-06-14T00:13:52;2.47;;;2.20;;
55601;SDS011;59921;51.332;12.410;2023-06-14T00:16:18;2.55;;;1.88;;
55601;SDS011;59921;51.332;12.410;2023-06-14T00:18:44;3.15;;;2.40;;
55601;SDS011;59921;51.332;12.410;2023-06-14T00:21:11;2.35;;;1.92;;
55601;SDS011;59921;51.332;12.410;2023-06-14T00:23:37;3.05;;;2.20;;
55601;SDS011;59921;51.332;12.410;2023-06-14T00:26:02;2.47;;;2.20;;
55601;SDS011;59921;51.332;12.410;2023-06-14T00:28:28;2.55;;;2.15;;
55601;SDS011;59921;51.332;12.410;2023-06-14T00:30:53;3.20;;;2.30;;
55601;SDS011;59921;51.332;12.410;2023-06-14T00:33:19;2.60;;;1.85;;
55601;SDS011;59921;51.332;12.410;2023-06-14T00:35:45;2.55;;;2.05;;
55601;SDS011;59921;51.332;12.410;2023-06-14T00:38:10;2.42;;;2.22;;
55601;SDS011;59921;51.332;12.410;2023-06-14T00:40:36;2.97;;;2.22;;
55601;SDS011;59921;51.332;12.410;2023-06-14T00:43:01;3.15;;;2.30;;
55601;SDS011;59921;51.332;12.410;2023-06-14T00:45:27;2.40;;;2.17;;
55601;SDS011;59921;51.332;12.410;2023-06-14T00:47:52;2.42;;;2.03;;
55601;SDS011;59921;51.332;12.410;2023-06-14T00:50:20;2.65;;;2.28;;
55601;SDS011;59921;51.332;12.410;2023-06-14T00:52:46;2.53;;;2.20;;
55601;SDS011;59921;51.332;12.410;2023-06-14T00:55:12;2.53;;;2.20;;
55601;SDS011;59921;51.332;12.410;2023-06-14T00:57:38;2.42;;;2.10;;
55601;SDS011;59921;51.332;12.410;2023-06-14T01:00:05;2.53;;;2.00;;
55601;SDS011;59921;51.332;12.410;2023-06-14T01:02:35;2.90;;;2.33;;
55601;SDS011;59921;51.332;12.410;2023-06-14T01:05:02;2.85;;;2.30;;
55601;SDS011;59921;51.332;12.410;2023-06-14T01:10:35;2.92;;;2.00;;
55601;SDS011;59921;51.332;12.410;2023-06-14T01:15:43;2.42;;;2.22;;
55601;SDS011;59921;51.332;12.410;2023-06-14T01:18:09;2.78;;;2.25;;
55601;SDS011;59921;51.332;12.410;2023-06-14T01:20:42;2.75;;;2.20;;
55601;SDS011;59921;51.332;12.410;2023-06-14T01:23:10;2.35;;;2.10;;
55601;SDS011;59921;51.332;12.410;2023-06-14T01:25:37;3.20;;;2.53;;
55601;SDS011;59921;51.332;12.410;2023-06-14T01:28:05;2.53;;;2.05;;
55601;SDS011;59921;51.332;12.410;2023-06-14T01:30:36;2.65;;;2.20;;
55601;SDS011;59921;51.332;12.410;2023-06-14T01:33:03;2.17;;;1.95;;
55601;SDS011;59921;51.332;12.410;2023-06-14T01:35:31;3.35;;;2.40;;
55601;SDS011;59921;51.332;12.410;2023-06-14T01:37:57;2.30;;;2.10;;
55601;SDS011;59921;51.332;12.410;2023-06-14T01:40:23;2.63;;;1.92;;
55601;SDS011;59921;51.332;12.410;2023-06-14T01:42:50;2.40;;;1.90;;
55601;SDS011;59921;51.332;12.410;2023-06-14T01:45:16;3.15;;;2.20;;
55601;SDS011;59921;51.332;12.410;2023-06-14T01:47:43;2.95;;;2.58;;
55601;SDS011;59921;51.332;12.410;2023-06-14T01:50:10;2.80;;;2.10;;
55601;SDS011;59921;51.332;12.410;2023-06-14T01:52:36;2.40;;;1.95;;
55601;SDS011;59921;51.332;12.410;2023-06-14T01:55:03;2.53;;;1.80;;
55601;SDS011;59921;51.332;12.410;2023-06-14T01:57:30;2.55;;;1.98;;
55601;SDS011;59921;51.332;12.410;2023-06-14T01:59:55;2.90;;;2.05;;
55601;SDS011;59921;51.332;12.410;2023-06-14T02:02:21;2.75;;;2.00;;
55601;SDS011;59921;51.332;12.410;2023-06-14T02:04:46;2.22;;;2.03;;
55601;SDS011;59921;51.332;12.410;2023-06-14T02:07:12;2.72;;;2.03;;
55601;SDS011;59921;51.332;12.410;2023-06-14T02:09:39;3.30;;;2.00;;
55601;SDS011;59921;51.332;12.410;2023-06-14T02:12:05;2.17;;;1.98;;
55601;SDS011;59921;51.332;12.410;2023-06-14T02:14:32;2.95;;;2.20;;
55601;SDS011;59921;51.332;12.410;2023-06-14T02:16:58;2.65;;;2.00;;
55601;SDS011;59921;51.332;12.410;2023-06-14T02:19:26;2.47;;;2.28;;
55601;SDS011;59921;51.332;12.410;2023-06-14T02:21:51;2.42;;;2.05;;
55601;SDS011;59921;51.332;12.410;2023-06-14T02:24:17;2.13;;;1.92;;
55601;SDS011;59921;51.332;12.410;2023-06-14T02:26:42;3.03;;;2.13;;
55601;SDS011;59921;51.332;12.410;2023-06-14T02:29:08;3.28;;;2.20;;
55601;SDS011;59921;51.332;12.410;2023-06-14T02:31:36;2.58;;;2.20;;
55601;SDS011;59921;51.332;12.410;2023-06-14T02:34:02;3.85;;;2.10;;
55601;SDS011;59921;51.332;12.410;2023-06-14T02:36:27;2.40;;;2.17;;
55601;SDS011;59921;51.332;12.410;2023-06-14T02:38:56;3.15;;;2.00;;
55601;SDS011;59921;51.332;12.410;2023-06-14T02:41:25;3.05;;;2.10;;
55601;SDS011;59921;51.332;12.410;2023-06-14T02:43:51;2.42;;;1.95;;
55601;SDS011;59921;51.332;12.410;2023-06-14T02:46:17;2.60;;;1.98;;
55601;SDS011;59921;51.332;12.410;2023-06-14T02:48:43;2.95;;;2.10;;
55601;SDS011;59921;51.332;12.410;2023-06-14T02:51:08;2.58;;;2.10;;
55601;SDS011;59921;51.332;12.410;2023-06-14T02:53:35;2.28;;;2.08;;
55601;SDS011;59921;51.332;12.410;2023-06-14T02:56:01;3.75;;;2.20;;
55601;SDS011;59921;51.332;12.410;2023-06-14T02:58:28;2.33;;;2.00;;
55601;SDS011;59921;51.332;12.410;2023-06-14T03:00:54;2.10;;;1.90;;
55601;SDS011;59921;51.332;12.410;2023-06-14T03:03:20;2.40;;;1.83;;
55601;SDS011;59921;51.332;12.410;2023-06-14T03:05:47;2.92;;;2.20;;
55601;SDS011;59921;51.332;12.410;2023-06-14T03:08:14;2.30;;;1.90;;
55601;SDS011;59921;51.332;12.410;2023-06-14T03:10:48;2.55;;;2.05;;
55601;SDS011;59921;51.332;12.410;2023-06-14T03:13:14;2.42;;;1.90;;
55601;SDS011;59921;51.332;12.410;2023-06-14T03:15:46;2.17;;;1.80;;
55601;SDS011;59921;51.332;12.410;2023-06-14T03:18:12;2.83;;;2.00;;
55601;SDS011;59921;51.332;12.410;2023-06-14T03:20:40;2.33;;;1.90;;
55601;SDS011;59921;51.332;12.410;2023-06-14T03:23:06;2.35;;;1.95;;
55601;SDS011;59921;51.332;12.410;2023-06-14T03:25:34;2.78;;;2.15;;
55601;SDS011;59921;51.332;12.410;2023-06-14T03:28:03;2.00;;;1.80;;
55601;SDS011;59921;51.332;12.410;2023-06-14T03:30:30;2.50;;;1.83;;
55601;SDS011;59921;51.332;12.410;2023-06-14T03:32:56;2.53;;;1.85;;
55601;SDS011;59921;51.332;12.410;2023-06-14T03:35:22;2.25;;;1.85;;
55601;SDS011;59921;51.332;12.410;2023-06-14T03:37:48;2.10;;;1.70;;
55601;SDS011;59921;51.332;12.410;2023-06-14T03:40:15;2.05;;;1.70;;
55601;SDS011;59921;51.332;12.410;2023-06-14T03:42:42;2.50;;;1.90;;
55601;SDS011;59921;51.332;12.410;2023-06-14T03:45:08;3.08;;;1.98;;
55601;SDS011;59921;51.332;12.410;2023-06-14T03:47:35;2.92;;;2.20;;
55601;SDS011;59921;51.332;12.410;2023-06-14T03:50:01;2.40;;;1.80;;
55601;SDS011;59921;51.332;12.410;2023-06-14T03:52:30;2.10;;;1.90;;
55601;SDS011;59921;51.332;12.410;2023-06-14T03:54:56;2.03;;;1.48;;
55601;SDS011;59921;51.332;12.410;2023-06-14T03:57:23;2.03;;;1.73;;
55601;SDS011;59921;51.332;12.410;2023-06-14T03:59:48;2.20;;;1.85;;
55601;SDS011;59921;51.332;12.410;2023-06-14T04:02:14;1.77;;;1.63;;
55601;SDS011;59921;51.332;12.410;2023-06-14T04:04:43;2.15;;;1.92;;
55601;SDS011;59921;51.332;12.410;2023-06-14T04:07:13;3.05;;;2.22;;
55601;SDS011;59921;51.332;12.410;2023-06-14T04:09:40;2.30;;;2.10;;
55601;SDS011;59921;51.332;12.410;2023-06-14T04:12:07;2.15;;;1.90;;
55601;SDS011;59921;51.332;12.410;2023-06-14T04:14:34;2.05;;;1.85;;
55601;SDS011;59921;51.332;12.410;2023-06-14T04:17:00;2.85;;;1.80;;
55601;SDS011;59921;51.332;12.410;2023-06-14T04:19:26;2.20;;;1.80;;
55601;SDS011;59921;51.332;12.410;2023-06-14T04:21:51;2.08;;;1.70;;
55601;SDS011;59921;51.332;12.410;2023-06-14T04:24:17;2.55;;;2.05;;
55601;SDS011;59921;51.332;12.410;2023-06-14T04:26:43;2.13;;;1.75;;
55601;SDS011;59921;51.332;12.410;2023-06-14T04:29:10;2.10;;;1.77;;
55601;SDS011;59921;51.332;12.410;2023-06-14T04:31:39;2.05;;;1.85;;
55601;SDS011;59921;51.332;12.410;2023-06-14T04:34:05;2.10;;;1.90;;
55601;SDS011;59921;51.332;12.410;2023-06-14T04:36:32;3.33;;;2.00;;
55601;SDS011;59921;51.332;12.410;2023-06-14T04:39:03;2.13;;;1.70;;
55601;SDS011;59921;51.332;12.410;2023-06-14T04:41:29;2.30;;;1.95;;
55601;SDS011;59921;51.332;12.410;2023-06-14T04:43:59;2.63;;;1.83;;
55601;SDS011;59921;51.332;12.410;2023-06-14T04:46:27;1.85;;;1.70;;
55601;SDS011;59921;51.332;12.410;2023-06-14T04:48:53;3.05;;;2.05;;
55601;SDS011;59921;51.332;12.410;2023-06-14T04:51:19;2.65;;;1.95;;
55601;SDS011;59921;51.332;12.410;2023-06-14T04:53:47;1.77;;;1.67;;
55601;SDS011;59921;51.332;12.410;2023-06-14T04:56:15;2.17;;;1.75;;
55601;SDS011;59921;51.332;12.410;2023-06-14T04:58:42;3.33;;;1.73;;
55601;SDS011;59921;51.332;12.410;2023-06-14T05:01:09;2.10;;;1.65;;
55601;SDS011;59921;51.332;12.410;2023-06-14T05:03:34;2.20;;;1.77;;
55601;SDS011;59921;51.332;12.410;2023-06-14T05:06:00;2.13;;;1.65;;
55601;SDS011;59921;51.332;12.410;2023-06-14T05:08:25;2.10;;;1.90;;
55601;SDS011;59921;51.332;12.410;2023-06-14T05:10:52;2.08;;;1.88;;
55601;SDS011;59921;51.332;12.410;2023-06-14T05:13:18;3.10;;;1.90;;
55601;SDS011;59921;51.332;12.410;2023-06-14T05:15:43;2.22;;;1.77;;
55601;SDS011;59921;51.332;12.410;2023-06-14T05:18:09;1.90;;;1.58;;
55601;SDS011;59921;51.332;12.410;2023-06-14T05:20:35;1.85;;;1.65;;
55601;SDS011;59921;51.332;12.410;2023-06-14T05:23:02;1.75;;;1.40;;
55601;SDS011;59921;51.332;12.410;2023-06-14T05:25:27;1.85;;;1.58;;
55601;SDS011;59921;51.332;12.410;2023-06-14T05:27:53;2.20;;;1.70;;
55601;SDS011;59921;51.332;12.410;2023-06-14T05:30:19;2.05;;;1.60;;
55601;SDS011;59921;51.332;12.410;2023-06-14T05:32:45;1.60;;;1.50;;
55601;SDS011;59921;51.332;12.410;2023-06-14T05:35:11;2.40;;;1.85;;
55601;SDS011;59921;51.332;12.410;2023-06-14T05:37:37;1.98;;;1.50;;
55601;SDS011;59921;51.332;12.410;2023-06-14T05:40:03;1.88;;;1.45;;
55601;SDS011;59921;51.332;12.410;2023-06-14T05:42:31;2.72;;;2.15;;
55601;SDS011;59921;51.332;12.410;2023-06-14T05:44:57;2.20;;;1.70;;
55601;SDS011;59921;51.332;12.410;2023-06-14T05:47:22;2.30;;;1.60;;
55601;SDS011;59921;51.332;12.410;2023-06-14T05:49:48;2.00;;;1.80;;
55601;SDS011;59921;51.332;12.410;2023-06-14T05:52:13;2.40;;;1.60;;
55601;SDS011;59921;51.332;12.410;2023-06-14T05:54:39;1.58;;;1.48;;
55601;SDS011;59921;51.332;12.410;2023-06-14T05:57:06;2.25;;;1.75;;
55601;SDS011;59921;51.332;12.410;2023-06-14T05:59:32;2.13;;;1.90;;
55601;SDS011;59921;51.332;12.410;2023-06-14T06:01:57;1.63;;;1.52;;
55601;SDS011;59921;51.332;12.410;2023-06-14T06:04:23;2.10;;;1.80;;
55601;SDS011;59921;51.332;12.410;2023-06-14T06:06:49;1.90;;;1.70;;
55601;SDS011;59921;51.332;12.410;2023-06-14T06:09:15;1.77;;;1.50;;
55601;SDS011;59921;51.332;12.410;2023-06-14T06:11:40;1.90;;;1.60;;
55601;SDS011;59921;51.332;12.410;2023-06-14T06:14:06;2.15;;;1.70;;
55601;SDS011;59921;51.332;12.410;2023-06-14T06:16:31;2.50;;;1.92;;
55601;SDS011;59921;51.332;12.410;2023-06-14T06:18:58;1.90;;;1.70;;
55601;SDS011;59921;51.332;12.410;2023-06-14T06:21:24;2.65;;;1.75;;
55601;SDS011;59921;51.332;12.410;2023-06-14T06:23:50;2.15;;;1.90;;
55601;SDS011;59921;51.332;12.410;2023-06-14T06:26:15;2.85;;;1.70;;
55601;SDS011;59921;51.332;12.410;2023-06-14T06:28:40;2.63;;;1.90;;
55601;SDS011;59921;51.332;12.410;2023-06-14T06:31:06;1.67;;;1.58;;
55601;SDS011;59921;51.332;12.410;2023-06-14T06:33:32;2.75;;;1.70;;
55601;SDS011;59921;51.332;12.410;2023-06-14T06:35:57;2.90;;;1.80;;
55601;SDS011;59921;51.332;12.410;2023-06-14T06:38:23;2.28;;;1.85;;
55601;SDS011;59921;51.332;12.410;2023-06-14T06:40:48;1.73;;;1.60;;
55601;SDS011;59921;51.332;12.410;2023-06-14T06:43:14;2.25;;;1.80;;
55601;SDS011;59921;51.332;12.410;2023-06-14T06:45:42;1.98;;;1.77;;
55601;SDS011;59921;51.332;12.410;2023-06-14T06:48:08;2.13;;;1.70;;
55601;SDS011;59921;51.332;12.410;2023-06-14T06:50:35;2.17;;;1.90;;
55601;SDS011;59921;51.332;12.410;2023-06-14T06:53:01;1.95;;;1.77;;
55601;SDS011;59921;51.332;12.410;2023-06-14T06:55:27;2.00;;;1.70;;
55601;SDS011;59921;51.332;12.410;2023-06-14T06:57:53;2.30;;;1.88;;
55601;SDS011;59921;51.332;12.410;2023-06-14T07:00:19;2.35;;;1.70;;
55601;SDS011;59921;51.332;12.410;2023-06-14T07:02:45;2.03;;;1.67;;
55601;SDS011;59921;51.332;12.410;2023-06-14T07:05:11;2.17;;;1.90;;
55601;SDS011;59921;51.332;12.410;2023-06-14T07:07:37;2.53;;;1.70;;
55601;SDS011;59921;51.332;12.410;2023-06-14T07:10:03;2.15;;;1.60;;
55601;SDS011;59921;51.332;12.410;2023-06-14T07:12:32;2.10;;;1.90;;
55601;SDS011;59921;51.332;12.410;2023-06-14T07:15:01;3.63;;;1.80;;
55601;SDS011;59921;51.332;12.410;2023-06-14T07:17:27;2.42;;;1.80;;
55601;SDS011;59921;51.332;12.410;2023-06-14T07:19:52;2.50;;;1.80;;
55601;SDS011;59921;51.332;12.410;2023-06-14T07:22:18;2.35;;;1.60;;
55601;SDS011;59921;51.332;12.410;2023-06-14T07:24:45;2.25;;;1.73;;
55601;SDS011;59921;51.332;12.410;2023-06-14T07:27:10;1.98;;;1.63;;
55601;SDS011;59921;51.332;12.410;2023-06-14T07:29:36;2.20;;;1.75;;
55601;SDS011;59921;51.332;12.410;2023-06-14T07:32:02;2.83;;;1.58;;
55601;SDS011;59921;51.332;12.410;2023-06-14T07:34:27;2.00;;;1.70;;
55601;SDS011;59921;51.332;12.410;2023-06-14T07:36:53;2.15;;;1.63;;
55601;SDS011;59921;51.332;12.410;2023-06-14T07:39:19;2.50;;;1.80;;
55601;SDS011;59921;51.332;12.410;2023-06-14T07:41:45;1.73;;;1.63;;
55601;SDS011;59921;51.332;12.410;2023-06-14T07:44:10;2.30;;;2.10;;
55601;SDS011;59921;51.332;12.410;2023-06-14T07:46:37;1.90;;;1.70;;
55601;SDS011;59921;51.332;12.410;2023-06-14T07:49:03;2.67;;;2.00;;
55601;SDS011;59921;51.332;12.410;2023-06-14T07:51:29;2.42;;;1.83;;
55601;SDS011;59921;51.332;12.410;2023-06-14T07:53:55;1.90;;;1.70;;
55601;SDS011;59921;51.332;12.410;2023-06-14T07:56:21;2.00;;;1.80;;
55601;SDS011;59921;51.332;12.410;2023-06-14T07:58:48;1.95;;;1.75;;
55601;SDS011;59921;51.332;12.410;2023-06-14T08:01:14;2.17;;;1.80;;
55601;SDS011;59921;51.332;12.410;2023-06-14T08:03:40;2.20;;;1.90;;
55601;SDS011;59921;51.332;12.410;2023-06-14T08:06:06;2.15;;;1.92;;
55601;SDS011;59921;51.332;12.410;2023-06-14T08:08:32;2.10;;;1.85;;
55601;SDS011;59921;51.332;12.410;2023-06-14T08:10:58;2.40;;;1.77;;
55601;SDS011;59921;51.332;12.410;2023-06-14T08:13:23;2.88;;;1.80;;
55601;SDS011;59921;51.332;12.410;2023-06-14T08:15:49;2.35;;;1.83;;
55601;SDS011;59921;51.332;12.410;2023-06-14T08:18:15;1.88;;;1.60;;
55601;SDS011;59921;51.332;12.410;2023-06-14T08:20:41;2.13;;;1.70;;
55601;SDS011;59921;51.332;12.410;2023-06-14T08:23:06;2.40;;;1.90;;
55601;SDS011;59921;51.332;12.410;2023-06-14T08:25:33;1.90;;;1.70;;
55601;SDS011;59921;51.332;12.410;2023-06-14T08:27:59;1.90;;;1.55;;
55601;SDS011;59921;51.332;12.410;2023-06-14T08:30:25;2.95;;;2.28;;
55601;SDS011;59921;51.332;12.410;2023-06-14T08:32:50;2.67;;;1.98;;
55601;SDS011;59921;51.332;12.410;2023-06-14T08:35:16;2.38;;;2.00;;
55601;SDS011;59921;51.332;12.410;2023-06-14T08:37:43;2.90;;;2.05;;
55601;SDS011;59921;51.332;12.410;2023-06-14T08:40:19;2.05;;;1.85;;
55601;SDS011;59921;51.332;12.410;2023-06-14T08:42:52;2.85;;;2.00;;
55601;SDS011;59921;51.332;12.410;2023-06-14T08:45:19;2.17;;;1.95;;
55601;SDS011;59921;51.332;12.410;2023-06-14T08:47:49;3.30;;;2.10;;
55601;SDS011;59921;51.332;12.410;2023-06-14T08:50:23;2.35;;;1.92;;
55601;SDS011;59921;51.332;12.410;2023-06-14T08:53:00;2.55;;;2.10;;
55601;SDS011;59921;51.332;12.410;2023-06-14T08:55:27;2.50;;;1.80;;
55601;SDS011;59921;51.332;12.410;2023-06-14T08:57:55;3.75;;;1.90;;
55601;SDS011;59921;51.332;12.410;2023-06-14T09:00:25;2.25;;;2.05;;
55601;SDS011;59921;51.332;12.410;2023-06-14T09:02:52;2.85;;;2.00;;
55601;SDS011;59921;51.332;12.410;2023-06-14T09:05:23;2.47;;;1.95;;
55601;SDS011;59921;51.332;12.410;2023-06-14T09:07:50;2.15;;;1.80;;
55601;SDS011;59921;51.332;12.410;2023-06-14T09:10:25;2.33;;;1.83;;
55601;SDS011;59921;51.332;12.410;2023-06-14T09:12:51;2.90;;;1.80;;
55601;SDS011;59921;51.332;12.410;2023-06-14T09:15:16;2.38;;;2.00;;
55601;SDS011;59921;51.332;12.410;2023-06-14T09:17:42;2.65;;;1.80;;
55601;SDS011;59921;51.332;12.410;2023-06-14T09:20:08;2.10;;;1.90;;
55601;SDS011;59921;51.332;12.410;2023-06-14T09:22:36;2.20;;;2.00;;
55601;SDS011;59921;51.332;12.410;2023-06-14T09:25:02;2.00;;;1.73;;
55601;SDS011;59921;51.332;12.410;2023-06-14T09:27:28;2.10;;;1.80;;
55601;SDS011;59921;51.332;12.410;2023-06-14T09:29:54;2.15;;;1.90;;
55601;SDS011;59921;51.332;12.410;2023-06-14T09:32:20;3.00;;;2.03;;
55601;SDS011;59921;51.332;12.410;2023-06-14T09:34:47;1.92;;;1.73;;
55601;SDS011;59921;51.332;12.410;2023-06-14T09:37:13;2.35;;;1.90;;
55601;SDS011;59921;51.332;12.410;2023-06-14T09:39:53;3.22;;;1.90;;
55601;SDS011;59921;51.332;12.410;2023-06-14T09:42:19;2.90;;;1.85;;
55601;SDS011;59921;51.332;12.410;2023-06-14T09:44:47;3.15;;;2.08;;
55601;SDS011;59921;51.332;12.410;2023-06-14T09:47:16;2.47;;;1.92;;
55601;SDS011;59921;51.332;12.410;2023-06-14T09:49:42;1.98;;;1.77;;
55601;SDS011;59921;51.332;12.410;2023-06-14T09:52:10;2.30;;;1.90;;
55601;SDS011;59921;51.332;12.410;2023-06-14T09:54:42;1.90;;;1.70;;
55601;SDS011;59921;51.332;12.410;2023-06-14T09:57:12;1.98;;;1.67;;
55601;SDS011;59921;51.332;12.410;2023-06-14T09:59:45;2.05;;;1.70;;
55601;SDS011;59921;51.332;12.410;2023-06-14T10:02:22;2.22;;;1.90;;
55601;SDS011;59921;51.332;12.410;2023-06-14T10:05:03;2.42;;;2.00;;
55601;SDS011;59921;51.332;12.410;2023-06-14T10:10:20;2.08;;;1.63;;
55601;SDS011;59921;51.332;12.410;2023-06-14T10:12:47;2.00;;;1.80;;
55601;SDS011;59921;51.332;12.410;2023-06-14T10:18:29;2.13;;;1.70;;
55601;SDS011;59921;51.332;12.410;2023-06-14T10:24:01;2.67;;;2.00;;
55601;SDS011;59921;51.332;12.410;2023-06-14T10:26:30;2.42;;;1.60;;
55601;SDS011;59921;51.332;12.410;2023-06-14T10:28:56;2.10;;;1.90;;
55601;SDS011;59921;51.332;12.410;2023-06-14T10:31:48;2.05;;;1.80;;
55601;SDS011;59921;51.332;12.410;2023-06-14T10:34:26;2.58;;;1.95;;
55601;SDS011;59921;51.332;12.410;2023-06-14T10:37:12;2.13;;;1.67;;
55601;SDS011;59921;51.332;12.410;2023-06-14T10:39:42;2.33;;;1.80;;
55601;SDS011;59921;51.332;12.410;2023-06-14T10:42:10;2.17;;;1.67;;
55601;SDS011;59921;51.332;12.410;2023-06-14T10:47:21;1.60;;;1.50;;
55601;SDS011;59921;51.332;12.410;2023-06-14T10:49:54;1.70;;;1.60;;
55601;SDS011;59921;51.332;12.410;2023-06-14T10:52:23;2.17;;;1.80;;
55601;SDS011;59921;51.332;12.410;2023-06-14T10:57:36;2.63;;;1.98;;
55601;SDS011;59921;51.332;12.410;2023-06-14T11:00:05;2.17;;;1.80;;
55601;SDS011;59921;51.332;12.410;2023-06-14T11:02:46;1.80;;;1.70;;
55601;SDS011;59921;51.332;12.410;2023-06-14T11:05:35;1.90;;;1.70;;
55601;SDS011;59921;51.332;12.410;2023-06-14T11:08:39;1.73;;;1.63;;
55601;SDS011;59921;51.332;12.410;2023-06-14T11:11:17;1.80;;;1.50;;
55601;SDS011;59921;51.332;12.410;2023-06-14T11:13:46;2.10;;;1.70;;
55601;SDS011;59921;51.332;12.410;2023-06-14T11:16:15;1.90;;;1.70;;
55601;SDS011;59921;51.332;12.410;2023-06-14T11:18:42;1.95;;;1.75;;
55601;SDS011;59921;51.332;12.410;2023-06-14T11:21:10;2.50;;;1.80;;
55601;SDS011;59921;51.332;12.410;2023-06-14T11:23:35;1.90;;;1.70;;
55601;SDS011;59921;51.332;12.410;2023-06-14T11:26:02;1.70;;;1.60;;
55601;SDS011;59921;51.332;12.410;2023-06-14T11:28:39;2.80;;;1.88;;
55601;SDS011;59921;51.332;12.410;2023-06-14T11:31:06;2.08;;;1.73;;
55601;SDS011;59921;51.332;12.410;2023-06-14T11:33:33;1.67;;;1.58;;
55601;SDS011;59921;51.332;12.410;2023-06-14T11:36:01;1.92;;;1.73;;
55601;SDS011;59921;51.332;12.410;2023-06-14T11:38:28;1.70;;;1.40;;
55601;SDS011;59921;51.332;12.410;2023-06-14T11:40:58;1.80;;;1.70;;
55601;SDS011;59921;51.332;12.410;2023-06-14T11:43:24;2.38;;;1.88;;
55601;SDS011;59921;51.332;12.410;2023-06-14T11:45:52;2.13;;;1.70;;
55601;SDS011;59921;51.332;12.410;2023-06-14T11:48:17;1.85;;;1.40;;
55601;SDS011;59921;51.332;12.410;2023-06-14T11:50:43;1.92;;;1.73;;
55601;SDS011;59921;51.332;12.410;2023-06-14T11:53:09;1.50;;;1.40;;
55601;SDS011;59921;51.332;12.410;2023-06-14T11:55:38;2.08;;;1.80;;
55601;SDS011;59921;51.332;12.410;2023-06-14T11:58:05;2.00;;;1.77;;
55601;SDS011;59921;51.332;12.410;2023-06-14T12:00:31;1.92;;;1.73;;
55601;SDS011;59921;51.332;12.410;2023-06-14T12:02:58;2.55;;;1.60;;
55601;SDS011;59921;51.332;12.410;2023-06-14T12:05:24;1.75;;;1.60;;
55601;SDS011;59921;51.332;12.410;2023-06-14T12:07:57;1.80;;;1.50;;
55601;SDS011;59921;51.332;12.410;2023-06-14T12:10:24;1.70;;;1.60;;
55601;SDS011;59921;51.332;12.410;2023-06-14T12:12:50;1.98;;;1.60;;
55601;SDS011;59921;51.332;12.410;2023-06-14T12:15:15;1.88;;;1.60;;
55601;SDS011;59921;51.332;12.410;2023-06-14T12:17:42;1.50;;;1.27;;
55601;SDS011;59921;51.332;12.410;2023-06-14T12:20:09;2.92;;;1.60;;
55601;SDS011;59921;51.332;12.410;2023-06-14T12:22:54;1.90;;;1.70;;
55601;SDS011;59921;51.332;12.410;2023-06-14T12:25:28;2.17;;;1.60;;
55601;SDS011;59921;51.332;12.410;2023-06-14T12:27:59;1.67;;;1.50;;
55601;SDS011;59921;51.332;12.410;2023-06-14T12:30:30;1.77;;;1.50;;
55601;SDS011;59921;51.332;12.410;2023-06-14T12:32:55;1.83;;;1.50;;
55601;SDS011;59921;51.332;12.410;2023-06-14T12:35:21;1.70;;;1.30;;
55601;SDS011;59921;51.332;12.410;2023-06-14T12:37:47;1.65;;;1.48;;
55601;SDS011;59921;51.332;12.410;2023-06-14T12:40:13;1.60;;;1.50;;
55601;SDS011;59921;51.332;12.410;2023-06-14T12:42:38;1.65;;;1.30;;
55601;SDS011;59921;51.332;12.410;2023-06-14T12:45:05;1.80;;;1.70;;
55601;SDS011;59921;51.332;12.410;2023-06-14T12:47:31;2.13;;;1.63;;
55601;SDS011;59921;51.332;12.410;2023-06-14T12:49:56;1.92;;;1.63;;
55601;SDS011;59921;51.332;12.410;2023-06-14T12:52:22;1.60;;;1.50;;
55601;SDS011;59921;51.332;12.410;2023-06-14T12:54:48;2.05;;;1.40;;
55601;SDS011;59921;51.332;12.410;2023-06-14T12:57:13;1.77;;;1.50;;
55601;SDS011;59921;51.332;12.410;2023-06-14T12:59:39;1.85;;;1.35;;
55601;SDS011;59921;51.332;12.410;2023-06-14T13:02:15;1.63;;;1.38;;
55601;SDS011;59921;51.332;12.410;2023-06-14T13:04:42;1.77;;;1.35;;
55601;SDS011;59921;51.332;12.410;2023-06-14T13:07:08;1.88;;;1.50;;
55601;SDS011;59921;51.332;12.410;2023-06-14T13:09:35;2.13;;;1.40;;
55601;SDS011;59921;51.332;12.410;2023-06-14T13:12:01;1.50;;;1.40;;
55601;SDS011;59921;51.332;12.410;2023-06-14T13:14:27;1.50;;;1.40;;
55601;SDS011;59921;51.332;12.410;2023-06-14T13:16:52;1.70;;;1.40;;
55601;SDS011;59921;51.332;12.410;2023-06-14T13:19:18;2.08;;;1.70;;
55601;SDS011;59921;51.332;12.410;2023-06-14T13:21:43;2.03;;;1.60;;
55601;SDS011;59921;51.332;12.410;2023-06-14T13:24:09;1.52;;;1.42;;
55601;SDS011;59921;51.332;12.410;2023-06-14T13:26:34;1.65;;;1.42;;
55601;SDS011;59921;51.332;12.410;2023-06-14T13:29:00;1.83;;;1.50;;
55601;SDS011;59921;51.332;12.410;2023-06-14T13:31:26;1.40;;;1.30;;
55601;SDS011;59921;51.332;12.410;2023-06-14T13:33:51;1.40;;;1.30;;
55601;SDS011;59921;51.332;12.410;2023-06-14T13:36:16;1.50;;;1.40;;
55601;SDS011;59921;51.332;12.410;2023-06-14T13:38:42;1.77;;;1.50;;
55601;SDS011;59921;51.332;12.410;2023-06-14T13:41:08;1.67;;;1.50;;
55601;SDS011;59921;51.332;12.410;2023-06-14T13:43:33;1.83;;;1.48;;
55601;SDS011;59921;51.332;12.410;2023-06-14T13:45:59;1.60;;;1.50;;
55601;SDS011;59921;51.332;12.410;2023-06-14T13:48:24;1.42;;;1.30;;
55601;SDS011;59921;51.332;12.410;2023-06-14T13:50:50;1.85;;;1.40;;
55601;SDS011;59921;51.332;12.410;2023-06-14T13:53:15;1.52;;;1.38;;
55601;SDS011;59921;51.332;12.410;2023-06-14T13:55:41;1.50;;;1.40;;
55601;SDS011;59921;51.332;12.410;2023-06-14T13:58:06;1.50;;;1.40;;
55601;SDS011;59921;51.332;12.410;2023-06-14T14:00:32;1.60;;;1.50;;
55601;SDS011;59921;51.332;12.410;2023-06-14T14:02:58;1.88;;;1.50;;
55601;SDS011;59921;51.332;12.410;2023-06-14T14:05:25;1.40;;;1.30;;
55601;SDS011;59921;51.332;12.410;2023-06-14T14:07:54;1.45;;;1.35;;
55601;SDS011;59921;51.332;12.410;2023-06-14T14:10:21;1.60;;;1.50;;
55601;SDS011;59921;51.332;12.410;2023-06-14T14:12:48;1.95;;;1.50;;
55601;SDS011;59921;51.332;12.410;2023-06-14T14:15:14;2.03;;;1.52;;
55601;SDS011;59921;51.332;12.410;2023-06-14T14:17:40;1.77;;;1.50;;
55601;SDS011;59921;51.332;12.410;2023-06-14T14:20:07;1.40;;;1.25;;
55601;SDS011;59921;51.332;12.410;2023-06-14T14:22:32;1.42;;;1.33;;
55601;SDS011;59921;51.332;12.410;2023-06-14T14:24:58;1.58;;;1.48;;
55601;SDS011;59921;51.332;12.410;2023-06-14T14:27:24;1.50;;;1.40;;
55601;SDS011;59921;51.332;12.410;2023-06-14T14:29:49;1.63;;;1.40;;
55601;SDS011;59921;51.332;12.410;2023-06-14T14:32:15;1.65;;;1.55;;
55601;SDS011;59921;51.332;12.410;2023-06-14T14:34:41;1.55;;;1.40;;
55601;SDS011;59921;51.332;12.410;2023-06-14T14:37:06;2.80;;;1.50;;
55601;SDS011;59921;51.332;12.410;2023-06-14T14:39:31;1.23;;;1.13;;
55601;SDS011;59921;51.332;12.410;2023-06-14T14:42:06;1.50;;;1.40;;
55601;SDS011;59921;51.332;12.410;2023-06-14T14:44:32;2.47;;;1.40;;
55601;SDS011;59921;51.332;12.410;2023-06-14T14:46:58;1.77;;;1.40;;
55601;SDS011;59921;51.332;12.410;2023-06-14T14:49:23;2.22;;;1.63;;
55601;SDS011;59921;51.332;12.410;2023-06-14T14:51:49;2.55;;;1.48;;
55601;SDS011;59921;51.332;12.410;2023-06-14T14:54:14;1.30;;;1.17;;